Time;durP1;ratioP1;P1;durP2;ratioP2;P2;SDS_P1;SDS_P2;PMS_P1;PMS_P2;Temp;Humidity;BMP_temperature;BMP_pressure;BME280_temperature;BME280_humidity;BME280_pressure;Samples;Min_cycle;Max_cycle;Signal;HPM_P1;HPM_P2
2022/06/13 00:02:04;;;;;;;16.58;4.88;;;;;;;;;;4991257;28;20054;-58
2022/06/13 00:04:30;;;;;;;20.65;6.25;;;;;;;;;;5011772;28;20572;-58
2022/06/13 00:06:56;;;;;;;16.73;5.65;;;;;;;;;;5011663;28;20445;-58
2022/06/13 00:09:22;;;;;;;13.50;4.72;;;;;;;;;;5011674;28;20068;-58
2022/06/13 00:11:49;;;;;;;14.07;5.38;;;;;;;;;;5009677;28;20053;-58
2022/06/13 00:14:15;;;;;;;10.93;5.38;;;;;;;;;;5027297;28;20057;-58
2022/06/13 00:16:41;;;;;;;12.02;5.10;;;;;;;;;;5032255;28;20081;-58
2022/06/13 00:19:07;;;;;;;17.80;6.25;;;;;;;;;;5030477;28;20049;-58
2022/06/13 00:21:35;;;;;;;18.20;5.40;;;;;;;;;;5029958;28;20034;-58
2022/06/13 00:24:03;;;;;;;17.40;5.85;;;;;;;;;;5030910;28;20269;-58
2022/06/13 00:26:31;;;;;;;19.70;6.15;;;;;;;;;;5031059;28;20056;-58
2022/06/13 00:28:57;;;;;;;20.67;6.38;;;;;;;;;;5034909;28;20068;-58
2022/06/13 00:31:23;;;;;;;14.45;5.85;;;;;;;;;;5032663;28;20069;-58
2022/06/13 00:33:49;;;;;;;18.50;5.95;;;;;;;;;;5033397;28;20080;-58
2022/06/13 00:36:16;;;;;;;16.45;5.95;;;;;;;;;;5036004;28;20104;-58
2022/06/13 00:38:42;;;;;;;19.05;6.45;;;;;;;;;;5033414;28;20073;-58
2022/06/13 00:41:10;;;;;;;22.88;6.28;;;;;;;;;;5036119;28;20429;-58
2022/06/13 00:43:36;;;;;;;18.48;6.03;;;;;;;;;;5035179;28;20418;-58
2022/06/13 00:46:05;;;;;;;19.75;7.15;;;;;;;;;;5035633;28;20382;-58
2022/06/13 00:48:32;;;;;;;22.45;7.13;;;;;;;;;;5033545;28;20041;-58
2022/06/13 00:51:00;;;;;;;18.77;6.22;;;;;;;;;;5032942;28;20060;-58
2022/06/13 00:53:28;;;;;;;15.15;6.50;;;;;;;;;;5032492;28;20046;-58
2022/06/13 00:55:54;;;;;;;19.90;6.90;;;;;;;;;;5034943;28;20508;-58
2022/06/13 00:58:20;;;;;;;20.58;7.47;;;;;;;;;;5033852;28;20048;-58
2022/06/13 01:00:49;;;;;;;24.88;7.30;;;;;;;;;;5032106;28;20041;-58
2022/06/13 01:03:16;;;;;;;23.23;7.05;;;;;;;;;;5033790;28;20541;-58
2022/06/13 01:05:44;;;;;;;16.15;7.45;;;;;;;;;;5034121;28;20120;-58
2022/06/13 01:08:11;;;;;;;21.70;6.63;;;;;;;;;;5034575;28;20056;-58
2022/06/13 01:13:29;;;;;;;20.88;6.70;;;;;;;;;;5031515;28;20042;-58
2022/06/13 01:16:06;;;;;;;19.88;7.25;;;;;;;;;;5032561;28;20065;-59
2022/06/13 01:18:38;;;;;;;24.73;9.45;;;;;;;;;;5034746;28;20041;-58
2022/06/13 01:21:14;;;;;;;19.65;6.85;;;;;;;;;;5034297;28;20060;-57
2022/06/13 01:23:46;;;;;;;17.73;7.03;;;;;;;;;;5032439;28;20405;-58
2022/06/13 01:26:15;;;;;;;19.17;7.25;;;;;;;;;;5032563;28;20490;-58
2022/06/13 01:28:59;;;;;;;20.00;7.38;;;;;;;;;;5032796;28;20049;-58
2022/06/13 01:31:32;;;;;;;21.85;7.20;;;;;;;;;;5032654;28;20136;-58
2022/06/13 01:34:24;;;;;;;18.33;6.80;;;;;;;;;;5032222;28;20406;-57
2022/06/13 01:37:02;;;;;;;19.30;5.88;;;;;;;;;;5014354;28;20083;-58
2022/06/13 01:39:27;;;;;;;13.02;5.97;;;;;;;;;;5032129;28;20046;-58
2022/06/13 01:42:09;;;;;;;19.27;7.30;;;;;;;;;;5033027;28;22162;-58
2022/06/13 01:44:43;;;;;;;24.95;6.32;;;;;;;;;;5034423;28;20145;-57
2022/06/13 01:47:13;;;;;;;14.50;5.30;;;;;;;;;;5031779;28;20045;-58
2022/06/13 01:49:39;;;;;;;16.55;6.13;;;;;;;;;;5033090;28;20041;-58
2022/06/13 01:52:14;;;;;;;16.50;5.65;;;;;;;;;;5033925;28;20049;-58
2022/06/13 01:54:59;;;;;;;18.17;6.57;;;;;;;;;;5034107;28;20045;-58
2022/06/13 01:57:24;;;;;;;18.17;6.03;;;;;;;;;;5033769;28;20053;-57
2022/06/13 01:59:57;;;;;;;20.27;6.15;;;;;;;;;;5032887;28;20095;-58
2022/06/13 02:02:32;;;;;;;17.30;5.88;;;;;;;;;;5034184;28;20046;-57
2022/06/13 02:05:02;;;;;;;18.25;5.53;;;;;;;;;;5031853;28;20042;-57
2022/06/13 02:07:30;;;;;;;18.67;5.38;;;;;;;;;;5034187;28;20053;-57
2022/06/13 02:10:32;;;;;;;16.85;4.88;;;;;;;;;;5034064;28;20045;-58
2022/06/13 02:13:07;;;;;;;14.98;5.38;;;;;;;;;;4971335;28;20054;-58
2022/06/13 02:15:39;;;;;;;15.85;5.63;;;;;;;;;;4953400;29;20052;-58
2022/06/13 02:18:19;;;;;;;14.52;5.75;;;;;;;;;;4957664;28;20522;-57
2022/06/13 02:20:47;;;;;;;13.37;5.50;;;;;;;;;;4961899;28;20059;-57
2022/06/13 02:23:14;;;;;;;16.00;4.57;;;;;;;;;;4955267;28;20411;-58
2022/06/13 02:25:45;;;;;;;15.57;6.28;;;;;;;;;;4972078;28;20054;-58
2022/06/13 02:28:20;;;;;;;;;;;14.80;99.90;;;;;;4969943;28;20122;-58
2022/06/13 02:30:50;;;;;;;10.90;4.60;;;;;;;;;;4957929;28;19929;-58
2022/06/13 02:33:22;;;;;;;10.20;3.88;;;;;;;;;;4964925;28;20085;-58
2022/06/13 02:35:50;;;;;;;14.70;5.15;;;;;;;;;;4969592;28;20581;-58
2022/06/13 02:38:37;;;;;;;12.70;4.55;;;;;;;;;;4971313;28;20090;-58
2022/06/13 02:41:06;;;;;;;15.07;4.30;;;;;;;;;;4972670;28;20588;-58
2022/06/13 02:43:36;;;;;;;12.30;4.93;;;;;;;;;;4951394;28;20151;-59
2022/06/13 02:46:06;;;;;;;13.63;4.97;;;;;;;;;;4977427;28;20043;-58
2022/06/13 02:48:33;;;;;;;16.30;4.70;;;;;;;;;;5025814;28;20084;-58
2022/06/13 02:51:09;;;;;;;15.55;4.82;;;;;;;;;;5032379;28;20041;-58
2022/06/13 02:53:39;;;;;;;15.75;4.13;;;;;;;;;;5030659;28;20045;-58
2022/06/13 02:56:16;;;;;;;14.70;4.20;;;;;;;;;;5032879;28;20045;-58
2022/06/13 02:58:45;;;;;;;9.10;3.75;;;;;;;;;;5033279;28;20033;-58
2022/06/13 03:01:18;;;;;;;13.80;4.40;;;;;;;;;;5030444;28;20050;-59
2022/06/13 03:03:50;;;;;;;13.95;4.65;;;;;;;;;;5031140;28;20056;-60
2022/06/13 03:06:27;;;;;;;12.85;3.78;;;;;;;;;;5032084;28;20045;-63
2022/06/13 03:08:56;;;;;;;13.85;3.60;;;;;;;;;;5033298;28;20493;-59
2022/06/13 03:11:22;;;;;;;19.25;4.68;;;;;;;;;;5032450;28;20049;-59
2022/06/13 03:14:17;;;;;;;13.32;4.70;;;;;;;;;;5032077;28;20053;-59
2022/06/13 03:17:06;;;;;;;11.95;3.65;;;;;;;;;;5013623;28;20099;-59
2022/06/13 03:19:41;;;;;;;13.75;3.58;;;;;;;;;;4968357;28;20057;-59
2022/06/13 03:22:29;;;;;;;10.32;3.45;;;;;;;;;;4969945;28;20075;-59
2022/06/13 03:25:21;;;;;;;14.80;3.85;;;;;;;;;;4954695;28;20138;-60
2022/06/13 03:27:54;;;;;;;10.90;4.18;;;;;;;;;;4963095;28;20058;-59
2022/06/13 03:30:21;;;;;;;13.10;5.00;;;;;;;;;;4971766;28;20074;-59
2022/06/13 03:33:40;;;;;;;11.82;4.15;;;;;;;;;;4971844;28;20393;-60
2022/06/13 03:35:38;;;;;;;11.68;3.70;;;;;;;;;;4953468;28;20055;-59
2022/06/13 03:38:05;;;;;;;12.80;3.22;;;;;;;;;;4969934;28;20051;-59
2022/06/13 03:40:32;;;;;;;10.25;3.45;;;;;;;;;;4966033;28;20050;-60
2022/06/13 03:43:02;;;;;;;11.02;2.95;;;;;;;;;;4971357;28;20414;-59
2022/06/13 03:45:31;;;;;;;12.48;3.33;;;;;;;;;;4970174;28;20404;-59
2022/06/13 03:47:58;;;;;;;8.57;2.65;;;;;;;;;;4968983;28;20145;-59
2022/06/13 03:50:27;;;;;;;10.30;2.65;;;;;;;;;;4937938;28;20130;-59
2022/06/13 03:52:58;;;;;;;8.20;2.40;;;;;;;;;;4952408;29;20147;-59
2022/06/13 03:55:28;;;;;;;8.48;3.88;;;;;;;;;;4952370;28;20100;-60
2022/06/13 03:58:08;;;;;;;9.53;2.93;;;;;;;;;;5029288;28;20090;-60
2022/06/13 04:00:39;;;;;;;13.75;3.03;;;;;;;;;;5032132;28;20292;-60
2022/06/13 04:03:06;;;;;;;13.88;3.63;;;;;;;;;;5032456;28;20058;-60
2022/06/13 04:05:37;;;;;;;11.00;3.00;;;;;;;;;;5014066;28;20053;-60
2022/06/13 04:08:04;;;;;;;6.78;2.22;;;;;;;;;;5030371;28;20083;-60
2022/06/13 04:10:36;;;;;;;8.65;3.00;;;;;;;;;;5032362;28;20455;-60
2022/06/13 04:13:39;;;;;;;10.70;3.13;;;14.50;99.90;;;;;;5032106;28;20053;-60
2022/06/13 04:16:19;;;;;;;9.55;2.67;;;;;;;;;;4949923;29;20051;-60
2022/06/13 04:19:09;;;;;;;6.87;3.10;;;;;;;;;;4935907;29;20523;-59
2022/06/13 04:21:41;;;;;;;8.27;2.90;;;;;;;;;;4951126;29;20295;-60
2022/06/13 04:24:20;;;;;;;10.00;4.05;;;;;;;;;;4935068;29;20110;-59
2022/06/13 04:26:51;;;;;;;9.00;3.70;;;;;;;;;;4946081;29;20050;-59
2022/06/13 04:29:28;;;;;;;10.00;3.72;;;;;;;;;;4933273;29;20047;-59
2022/06/13 04:32:00;;;;;;;10.68;3.25;;;;;;;;;;4936219;29;20083;-60
2022/06/13 04:34:29;;;;;;;6.90;2.88;;;;;;;;;;4934477;29;20051;-60
2022/06/13 04:36:56;;;;;;;11.93;2.80;;;;;;;;;;4935062;29;20063;-59
2022/06/13 04:39:25;;;;;;;10.45;3.00;;;;;;;;;;4935579;29;20307;-60
2022/06/13 04:41:52;;;;;;;7.88;2.38;;;;;;;;;;4951938;29;20562;-59
2022/06/13 04:44:23;;;;;;;9.40;2.63;;;;;;;;;;4939456;29;20064;-59
2022/06/13 04:46:50;;;;;;;8.38;2.75;;;;;;;;;;4951091;29;20059;-59
2022/06/13 04:49:28;;;;;;;8.60;2.50;;;;;;;;;;4959518;28;20049;-59
2022/06/13 04:51:55;;;;;;;5.80;2.72;;;;;;;;;;5031390;28;20075;-61
2022/06/13 04:54:27;;;;;;;7.88;2.70;;;;;;;;;;5031048;28;20167;-59
2022/06/13 04:56:56;;;;;;;9.48;3.30;;;;;;;;;;5031759;28;20049;-60
2022/06/13 04:59:22;;;;;;;8.05;3.42;;;;;;;;;;5031838;28;20417;-59
2022/06/13 05:01:50;;;;;;;8.77;2.53;;;;;;;;;;5031606;28;20134;-60
2022/06/13 05:04:19;;;;;;;13.60;3.30;;;;;;;;;;5030229;28;20046;-60
2022/06/13 05:06:46;;;;;;;8.30;2.33;;;;;;;;;;5030435;28;20053;-59
2022/06/13 05:09:12;;;;;;;5.68;1.90;;;;;;;;;;5032549;28;20493;-59
2022/06/13 05:11:51;;;;;;;9.02;2.25;;;;;;;;;;5035514;28;20045;-59
2022/06/13 05:14:20;;;;;;;10.00;3.80;;;;;;;;;;5034436;28;20049;-59
2022/06/13 05:16:55;;;;;;;7.85;2.05;;;;;;;;;;5035385;28;20099;-61
2022/06/13 05:19:36;;;;;;;10.38;2.03;;;;;;;;;;5034052;28;20482;-58
2022/06/13 05:22:02;;;;;;;10.45;3.75;;;;;;;;;;5034954;28;20072;-60
2022/06/13 05:24:42;;;;;;;7.50;1.63;;;;;;;;;;5028156;28;20408;-61
2022/06/13 05:27:08;;;;;;;12.00;1.95;;;;;;;;;;5042603;28;20132;-60
2022/06/13 05:29:35;;;;;;;10.60;2.70;;;;;;;;;;5035135;28;20136;-61
2022/06/13 05:32:01;;;;;;;7.35;1.58;;;;;;;;;;5035117;28;20054;-61
2022/06/13 05:34:37;;;;;;;5.80;1.63;;;;;;;;;;5033541;28;20041;-63
2022/06/13 05:37:03;;;;;;;10.02;1.63;;;;;;;;;;5032266;28;20041;-60
2022/06/13 05:39:30;;;;;;;6.72;1.60;;;;;;;;;;5033247;28;20059;-61
2022/06/13 05:41:56;;;;;;;8.80;1.80;;;;;;;;;;5033120;28;20083;-58
2022/06/13 05:44:25;;;;;;;7.22;2.33;;;;;;;;;;5033080;28;20041;-58
2022/06/13 05:46:51;;;;;;;7.63;1.70;;;;;;;;;;5034559;28;20045;-61
2022/06/13 05:49:17;;;;;;;7.72;1.58;;;;;;;;;;5032445;28;20049;-59
2022/06/13 05:51:47;;;;;;;9.27;1.75;;;;;;;;;;5030542;28;20049;-59
2022/06/13 05:54:13;;;;;;;7.40;1.92;;;;;;;;;;5031619;28;20050;-57
2022/06/13 05:56:39;;;;;;;6.60;1.85;;;;;;;;;;5033225;28;20052;-58
2022/06/13 05:59:05;;;;;;;10.23;1.85;;;;;;;;;;5031213;28;20077;-56
2022/06/13 06:01:36;;;;;;;6.53;2.53;;;;;;;;;;5033364;28;20045;-58
2022/06/13 06:04:03;;;;;;;7.63;2.05;;;;;;;;;;5033282;28;20053;-57
2022/06/13 06:06:29;;;;;;;7.35;1.60;;;;;;;;;;5034627;28;20053;-58
2022/06/13 06:08:59;;;;;;;9.50;1.95;;;;;;;;;;5034505;28;20053;-56
2022/06/13 06:11:26;;;;;;;9.20;1.80;;;;;;;;;;5032464;28;20045;-57
2022/06/13 06:13:52;;;;;;;7.18;1.70;;;;;;;;;;5032443;28;20061;-57
2022/06/13 06:16:21;;;;;;;10.43;1.65;;;;;;;;;;5030602;28;20048;-57
2022/06/13 06:18:48;;;;;;;7.60;1.57;;;;;;;;;;5034157;28;20383;-57
2022/06/13 06:21:16;;;;;;;12.73;1.60;;;;;;;;;;5048441;28;20085;-60
2022/06/13 06:23:43;;;;;;;4.55;1.33;;;;;;;;;;5011022;28;20053;-57
2022/06/13 06:26:10;;;;;;;1.92;0.73;;;;;;;;;;5015817;28;20524;-57
2022/06/13 06:28:36;;;;;;;1.13;0.40;;;;;;;;;;5027563;28;20136;-58
2022/06/13 06:31:03;;;;;;;0.82;0.50;;;;;;;;;;5031647;28;20045;-60
2022/06/13 06:33:30;;;;;;;1.35;0.70;;;;;;;;;;5027507;28;20425;-57
2022/06/13 06:35:56;;;;;;;4.82;0.80;;;;;;;;;;5033450;28;20045;-57
2022/06/13 06:38:23;;;;;;;4.65;1.10;;;;;;;;;;5032168;28;20405;-57
2022/06/13 06:40:49;;;;;;;3.45;1.20;;;;;;;;;;5016240;28;20119;-57
2022/06/13 06:43:15;;;;;;;4.40;1.17;;;;;;;;;;5031948;28;20132;-57
2022/06/13 06:45:42;;;;;;;4.45;1.45;;;;;;;;;;5032469;28;20057;-58
2022/06/13 06:48:21;;;;;;;7.13;1.58;;;;;;;;;;5029709;28;20473;-58
2022/06/13 06:50:49;;;;;;;6.40;1.50;;;;;;;;;;5038214;28;20132;-58
2022/06/13 06:53:16;;;;;;;6.55;1.80;;;;;;;;;;5033277;28;20141;-58
2022/06/13 07:01:12;;;;;;;8.02;1.52;;;;;;;;;;5033260;28;20052;-59
2022/06/13 07:03:39;;;;;;;6.35;1.60;;;;;;;;;;5032449;28;20412;-58
2022/06/13 07:06:07;;;;;;;9.20;1.60;;;;;;;;;;5029649;28;20047;-58
2022/06/13 07:08:33;;;;;;;7.03;1.63;;;;;;;;;;5018002;28;20555;-58
2022/06/13 07:13:47;;;;;;;5.35;1.52;;;;;;;;;;5030925;28;20489;-58
2022/06/13 07:16:13;;;;;;;5.93;1.88;;;;;;;;;;5033314;28;20053;-58
2022/06/13 07:18:41;;;;;;;7.68;1.23;;;;;;;;;;5032041;28;20064;-58
2022/06/13 07:21:09;;;;;;;7.55;1.65;;;;;;;;;;5029111;28;20060;-59
2022/06/13 07:23:36;;;;;;;8.80;1.83;;;;;;;;;;5029077;28;20524;-58
2022/06/13 07:26:03;;;;;;;4.68;1.27;;;;;;;;;;5032107;28;20555;-58
2022/06/13 07:28:29;;;;;;;5.43;1.27;;;;;;;;;;5030984;28;20038;-58
2022/06/13 07:30:56;;;;;;;5.75;1.80;;;;;;;;;;5032053;28;20126;-58
2022/06/13 07:33:22;;;;;;;10.95;1.95;;;;;;;;;;5028322;28;20053;-59
2022/06/13 07:35:48;;;;;;;3.92;1.10;;;;;;;;;;5031069;28;20038;-59
2022/06/13 07:38:17;;;;;;;8.00;1.50;;;;;;;;;;5032547;28;20052;-58
2022/06/13 07:40:44;;;;;;;6.05;1.48;;;;;;;;;;5030576;28;20103;-59
2022/06/13 07:43:19;;;;;;;5.40;1.20;;;;;;;;;;5047089;28;20116;-59
2022/06/13 07:45:45;;;;;;;6.40;1.27;;;;;;;;;;5029171;28;20681;-59
2022/06/13 07:48:11;;;;;;;5.40;1.65;;;;;;;;;;5031284;28;20045;-59
2022/06/13 07:50:37;;;;;;;5.70;0.70;;;;;;;;;;5031595;28;20045;-59
2022/06/13 07:53:04;;;;;;;6.68;1.45;;;;;;;;;;5024547;28;20049;-60
2022/06/13 07:55:32;;;;;;;7.68;1.10;;;;;;;;;;5028283;28;20466;-58
2022/06/13 07:57:58;;;;;;;6.57;1.17;;;;;;;;;;5023280;28;20750;-58
2022/06/13 08:00:26;;;;;;;6.30;1.00;;;;;;;;;;5023513;28;20140;-61
2022/06/13 08:02:53;;;;;;;9.13;1.50;;;;;;;;;;5032190;28;20045;-59
2022/06/13 08:05:20;;;;;;;7.65;1.23;;;;;;;;;;5031684;28;20057;-59
2022/06/13 08:07:46;;;;;;;7.38;1.13;;;;;;;;;;5032401;28;20053;-59
2022/06/13 08:10:12;;;;;;;4.30;1.10;;;;;;;;;;5025699;28;20049;-59
2022/06/13 08:12:42;;;;;;;5.03;1.33;;;;;;;;;;5031802;28;20057;-59
2022/06/13 08:15:08;;;;;;;9.95;1.35;;;;;;;;;;5016022;28;20080;-59
2022/06/13 08:17:34;;;;;;;10.45;1.90;;;;;;;;;;4995481;28;20042;-59
2022/06/13 08:20:01;;;;;;;5.50;1.00;;;;;;;;;;5012634;28;20228;-59
2022/06/13 08:22:27;;;;;;;7.18;1.30;;;;;;;;;;5012129;28;20045;-58
2022/06/13 08:24:53;;;;;;;4.55;1.00;;;;;;;;;;5012366;28;20054;-58
2022/06/13 08:27:19;;;;;;;5.05;1.05;;;;;;;;;;5012518;28;20613;-59
2022/06/13 08:29:45;;;;;;;3.83;0.95;;;;;;;;;;5012553;28;20072;-60
2022/06/13 08:32:11;;;;;;;3.75;1.08;;;;;;;;;;4994762;28;20100;-59
2022/06/13 08:34:38;;;;;;;7.00;1.13;;;;;;;;;;4994020;28;20111;-59
2022/06/13 08:37:04;;;;;;;3.42;1.02;;;;;;;;;;5018581;28;20049;-59
2022/06/13 08:39:30;;;;;;;10.80;1.35;;;;;;;;;;4995833;28;20056;-59
2022/06/13 08:41:59;;;;;;;5.80;0.90;;;;;;;;;;4993229;28;20046;-59
2022/06/13 08:44:34;;;;;;;9.45;1.20;;;;;;;;;;5015833;28;20045;-59
2022/06/13 08:47:04;;;;;;;4.85;1.33;;;;;;;;;;5016044;28;20490;-59
2022/06/13 08:49:36;;;;;;;8.45;1.58;;;;;;;;;;4998406;28;20125;-59
2022/06/13 08:52:12;;;;;;;9.02;1.08;;;;;;;;;;5014869;28;20048;-59
2022/06/13 08:54:39;;;;;;;4.38;1.05;;;;;;;;;;5016123;28;20049;-59
2022/06/13 08:57:09;;;;;;;7.95;1.30;;;;;;;;;;5015825;28;20152;-59
2022/06/13 08:59:40;;;;;;;6.18;1.25;;;;;;;;;;5015941;28;20048;-60
2022/06/13 09:02:29;;;;;;;7.85;1.30;;;;;;;;;;5014784;28;20104;-58
2022/06/13 09:04:58;;;;;;;7.93;1.30;;;;;;;;;;5008164;28;20089;-59
2022/06/13 09:07:24;;;;;;;4.35;1.10;;;;;;;;;;5022924;28;20046;-58
2022/06/13 09:09:53;;;;;;;5.13;1.20;;;;;;;;;;5015612;28;20117;-58
2022/06/13 09:12:24;;;;;;;6.85;1.17;;;;;;;;;;5000088;28;20503;-58
2022/06/13 09:14:53;;;;;;;6.10;1.40;;;;;;;;;;5035549;28;20068;-59
2022/06/13 09:17:19;;;;;;;5.57;0.95;;;;;;;;;;5035251;28;20540;-59
2022/06/13 09:19:54;;;;;;;6.22;1.20;;;;;;;;;;5034226;28;20121;-59
2022/06/13 09:22:23;;;;;;;11.77;1.40;;;;;;;;;;5029434;28;20124;-59
2022/06/13 09:25:11;;;;;;;5.75;1.17;;;17.90;99.90;;;;;;5033405;28;20061;-59
2022/06/13 09:27:39;;;;;;;7.70;1.38;;;;;;;;;;5035040;28;20049;-59
2022/06/13 09:30:12;;;;;;;7.30;1.27;;;;;;;;;;5016377;28;20140;-59
2022/06/13 09:32:53;;;;;;;10.02;1.58;;;18.50;99.90;;;;;;5034832;28;20444;-59
2022/06/13 09:35:22;;;;;;;7.00;1.25;;;;;;;;;;5032835;28;20034;-60
2022/06/13 09:37:56;;;;;;;10.00;1.33;;;;;;;;;;5034035;28;20091;-60
2022/06/13 09:40:44;;;;;;;5.45;1.15;;;18.20;99.90;;;;;;5034546;28;20464;-59
2022/06/13 09:43:50;;;;;;;8.18;1.42;;;19.10;99.90;;;;;;4996120;28;20057;-60
2022/06/13 09:46:39;;;;;;;6.10;1.70;;;18.80;99.90;;;;;;4997017;28;20564;-59
2022/06/13 09:49:14;;;;;;;6.63;1.48;;;18.60;99.90;;;;;;5033368;28;20045;-61
2022/06/13 09:51:40;;;;;;;7.45;1.58;;;;;;;;;;5032032;28;20123;-59
2022/06/13 09:54:12;;;;;;;8.00;1.70;;;;;;;;;;5034313;28;20049;-59
2022/06/13 09:56:41;;;;;;;4.75;1.10;;;;;;;;;;5033306;28;20041;-59
2022/06/13 09:59:28;;;;;;;5.68;1.48;;;17.60;99.90;;;;;;5034528;28;20125;-59
2022/06/13 10:01:59;;;;;;;15.05;2.60;;;;;;;;;;5029580;28;20064;-59
2022/06/13 10:04:48;;;;;;;5.95;1.45;;;;;;;;;;5033603;28;20156;-59
2022/06/13 10:07:20;;;;;;;6.80;1.30;;;;;;;;;;5019640;28;20062;-59
2022/06/13 10:10:05;;;;;;;9.45;1.63;;;;;;;;;;5032517;28;20069;-59
2022/06/13 10:12:36;;;;;;;8.40;1.63;;;;;;;;;;5031197;28;20056;-60
2022/06/13 10:15:28;;;;;;;10.02;1.38;;;18.10;99.90;;;;;;5032974;28;20088;-59
2022/06/13 10:17:54;;;;;;;8.13;1.48;;;;;;;;;;5016752;28;20117;-60
2022/06/13 10:20:20;;;;;;;8.20;1.45;;;;;;;;;;5026228;28;20132;-59
2022/06/13 10:22:49;;;;;;;8.60;1.70;;;;;;;;;;5033217;28;20128;-59
2022/06/13 10:25:35;;;;;;;5.47;1.10;;;;;;;;;;5033038;28;20132;-59
2022/06/13 10:28:20;;;;;;;7.72;1.65;;;;;;;;;;5031330;28;20502;-60
2022/06/13 10:31:09;;;;;;;7.53;1.02;;;18.90;99.90;;;;;;5031214;28;20049;-60
2022/06/13 10:33:46;;;;;;;5.15;1.25;;;;;;;;;;4993872;28;20061;-61
2022/06/13 10:36:21;;;;;;;9.18;1.65;;;;;;;;;;5031880;28;20053;-60
2022/06/13 10:39:20;;;;;;;5.18;1.70;;;;;;;;;;5033045;28;20050;-59
2022/06/13 10:41:48;;;;;;;8.07;1.55;;;;;;;;;;4990031;28;20409;-60
2022/06/13 10:44:18;;;;;;;4.72;1.65;;;;;;;;;;5033660;28;20049;-60
2022/06/13 10:46:49;;;;;;;8.18;1.65;;;;;;;;;;5030928;28;20048;-60
2022/06/13 10:49:25;;;;;;;6.57;1.35;;;;;;;;;;5032783;28;20049;-60
2022/06/13 10:51:52;;;;;;;5.68;1.50;;;;;;;;;;5028826;28;20077;-60
2022/06/13 10:54:24;;;;;;;5.85;1.73;;;;;;;;;;5031324;28;20048;-60
2022/06/13 10:56:52;;;;;;;8.02;1.35;;;;;;;;;;5032218;28;20413;-60
2022/06/13 10:59:25;;;;;;;10.48;1.40;;;;;;;;;;5035451;28;20046;-60
2022/06/13 11:01:54;;;;;;;7.40;1.30;;;;;;;;;;5014887;28;20061;-60
2022/06/13 11:04:20;;;;;;;9.60;1.58;;;;;;;;;;5026421;28;20492;-60
2022/06/13 11:06:48;;;;;;;8.57;1.30;;;;;;;;;;5031039;28;20127;-60
2022/06/13 11:09:27;;;;;;;9.32;1.23;;;;;;;;;;5030971;28;20069;-61
2022/06/13 11:11:54;;;;;;;8.15;1.85;;;;;;;;;;5032672;28;20417;-60
2022/06/13 11:14:26;;;;;;;9.50;1.38;;;;;;;;;;5030128;28;20049;-60
2022/06/13 11:22:40;;;;;;;5.05;1.10;;;;;;;;;;5025668;28;20061;-60
2022/06/13 11:25:23;;;;;;;6.18;1.10;;;;;;;;;;5030008;28;20034;-60
2022/06/13 11:28:01;;;;;;;6.45;1.20;;;;;;;;;;5027007;28;20445;-60
2022/06/13 11:30:28;;;;;;;6.30;1.15;;;;;;;;;;5030164;28;20053;-60
2022/06/13 11:33:03;;;;;;;4.32;1.13;;;;;;;;;;5022081;28;20060;-60
2022/06/13 11:35:31;;;;;;;8.10;1.38;;;;;;;;;;5026897;28;20053;-60
2022/06/13 11:38:16;;;;;;;8.20;1.75;;;19.10;99.90;;;;;;5030841;28;20085;-60
2022/06/13 11:40:43;;;;;;;7.45;1.33;;;;;;;;;;5028077;28;20045;-60
2022/06/13 11:43:19;;;;;;;8.30;1.25;;;;;;;;;;5030591;28;20049;-60
2022/06/13 11:45:54;;;;;;;9.27;2.03;;;;;;;;;;5028792;28;20053;-60
2022/06/13 11:48:20;;;;;;;10.20;2.10;;;;;;;;;;5030432;28;20050;-60
2022/06/13 11:50:46;;;;;;;9.13;2.17;;;;;;;;;;5038888;28;20049;-60
2022/06/13 11:56:00;;;;;;;4.63;1.25;;;;;;;;;;5029750;28;20049;-60
2022/06/13 11:58:31;;;;;;;6.53;1.55;;;;;;;;;;5031409;28;20080;-61
2022/06/13 12:01:12;;;;;;;7.53;1.58;;;;;;;;;;5031424;28;20543;-60
2022/06/13 12:03:42;;;;;;;5.43;1.25;;;;;;;;;;5032523;28;20140;-60
2022/06/13 12:06:10;;;;;;;6.57;1.98;;;;;;;;;;5039551;28;20110;-60
2022/06/13 12:08:36;;;;;;;9.95;1.45;;;;;;;;;;5036111;28;20466;-60
2022/06/13 12:11:05;;;;;;;6.68;1.40;;;;;;;;;;5019475;28;20049;-60
2022/06/13 12:13:34;;;;;;;9.25;2.38;;;;;;;;;;5024290;28;20050;-60
2022/06/13 12:16:12;;;;;;;4.75;1.10;;;;;;;;;;5011578;28;20064;-60
2022/06/13 12:18:48;;;;;;;6.55;1.90;;;;;;;;;;5047186;28;20052;-60
2022/06/13 12:22:00;;;;;;;7.20;1.20;;;19.10;99.90;;;;;;5029863;28;20045;-60
2022/06/13 12:24:30;;;;;;;6.88;1.20;;;;;;;;;;5009315;28;20529;-61
2022/06/13 12:27:05;;;;;;;6.85;0.93;;;;;;;;;;5039005;28;20041;-60
2022/06/13 12:29:31;;;;;;;5.68;1.17;;;;;;;;;;5039317;28;20038;-60
2022/06/13 12:32:09;;;;;;;8.32;1.10;;;;;;;;;;5023419;28;20046;-60
2022/06/13 12:34:47;;;;;;;7.40;1.00;;;;;;;;;;5036398;28;20256;-60
2022/06/13 12:37:19;;;;;;;7.25;1.70;;;;;;;;;;5035884;28;20050;-60
2022/06/13 12:39:55;;;;;;;5.22;1.10;;;;;;;;;;5035686;28;20046;-62
2022/06/13 12:42:43;;;;;;;6.05;1.02;;;;;;;;;;5035731;28;20124;-60
2022/06/13 12:45:32;;;;;;;7.97;1.10;;;;;;;;;;5035647;28;20041;-60
2022/06/13 12:48:04;;;;;;;5.78;1.38;;;;;;;;;;5035493;28;20041;-61
2022/06/13 12:50:49;;;;;;;3.92;1.00;;;;;;;;;;5033850;28;20870;-60
2022/06/13 12:53:24;;;;;;;5.03;1.05;;;;;;;;;;5034204;28;20393;-60
2022/06/13 12:55:58;;;;;;;7.72;1.45;;;;;;;;;;5051227;28;20041;-61
2022/06/13 12:58:36;;;;;;;7.57;1.40;;;;;;;;;;5033845;28;20125;-60
2022/06/13 13:01:16;;;;;;;8.23;1.20;;;;;;;;;;5030474;28;20084;-60
2022/06/13 13:03:42;;;;;;;6.43;1.08;;;;;;;;;;5034421;28;20041;-63
2022/06/13 13:06:30;;;;;;;5.90;1.20;;;;;;;;;;5034248;28;20072;-59
2022/06/13 13:09:11;;;;;;;4.28;1.05;;;;;;;;;;5034548;28;20137;-60
2022/06/13 13:11:43;;;;;;;6.88;1.38;;;;;;;;;;5034366;28;20413;-60
2022/06/13 13:14:11;;;;;;;6.82;1.30;;;;;;;;;;5035029;28;20061;-60
2022/06/13 13:16:46;;;;;;;6.28;1.40;;;;;;;;;;5048922;28;20618;-61
2022/06/13 13:19:40;;;;;;;5.35;1.10;;;;;;;;;;5034746;28;20046;-60
2022/06/13 13:22:14;;;;;;;8.45;2.25;;;;;;;;;;5035341;28;20107;-60
2022/06/13 13:24:52;;;;;;;7.28;1.30;;;;;;;;;;5040963;28;20107;-60
2022/06/13 13:27:19;;;;;;;5.13;1.17;;;;;;;;;;5022650;28;20037;-61
2022/06/13 13:30:06;;;;;;;5.60;1.10;;;;;;;;;;5034037;28;20579;-60
2022/06/13 13:32:43;;;;;;;10.15;1.40;;;;;;;;;;5015527;28;20042;-61
2022/06/13 13:35:31;;;;;;;10.70;1.60;;;;;;;;;;5015313;28;20049;-60
2022/06/13 13:38:08;;;;;;;10.32;1.90;;;;;;;;;;5031344;28;20041;-60
2022/06/13 13:40:44;;;;;;;9.10;1.42;;;;;;;;;;5050292;28;20394;-61
2022/06/13 13:43:25;;;;;;;6.40;1.30;;;;;;;;;;5033092;28;20076;-60
2022/06/13 13:46:05;;;;;;;7.30;1.25;;;;;;;;;;5033330;28;20041;-60
2022/06/13 13:48:46;;;;;;;10.20;1.67;;;;;;;;;;5023996;28;20125;-61
2022/06/13 13:51:17;;;;;;;15.27;2.08;;;;;;;;;;5040514;28;20089;-60
2022/06/13 13:53:46;;;;;;;7.72;1.08;;;;;;;;;;5034241;28;20555;-61
2022/06/13 13:56:25;;;;;;;6.70;1.20;;;;;;;;;;5039700;28;20151;-60
2022/06/13 13:58:51;;;;;;;6.93;1.35;;;;;;;;;;5030102;28;20508;-61
2022/06/13 14:01:17;;;;;;;12.82;1.45;;;;;;;;;;5025613;28;20080;-63
2022/06/13 14:03:56;;;;;;;6.18;1.48;;;;;;;;;;5031109;28;20080;-61
2022/06/13 14:06:25;;;;;;;5.63;1.00;;;;;;;;;;5007535;28;20083;-62
2022/06/13 14:08:51;;;;;;;8.40;1.20;;;;;;;;;;5023500;28;20091;-63
2022/06/13 14:11:17;;;;;;;9.80;1.20;;;;;;;;;;5026809;28;20042;-61
2022/06/13 14:13:47;;;;;;;6.68;1.45;;;;;;;;;;5013158;28;20062;-60
2022/06/13 14:16:33;;;;;;;6.50;1.60;;;;;;;;;;5006831;28;20503;-61
2022/06/13 14:19:10;;;;;;;8.10;1.15;;;;;;;;;;5010233;28;20053;-60
2022/06/13 14:21:42;;;;;;;5.10;1.45;;;21.20;99.90;;;;;;4987217;28;20119;-61
2022/06/13 14:24:15;;;;;;;9.07;1.75;;;;;;;;;;5010338;28;20103;-62
2022/06/13 14:26:44;;;;;;;5.93;1.20;;;;;;;;;;4994005;28;20053;-61
2022/06/13 14:29:13;;;;;;;4.13;1.00;;;;;;;;;;4988575;28;20053;-61
2022/06/13 14:32:15;;;;;;;9.57;1.40;;;22.00;99.90;;;;;;5006665;28;20061;-60
2022/06/13 14:37:54;;;;;;;3.90;0.88;;;;;;;;;;5002784;28;20058;-60
2022/06/13 14:40:20;;;;;;;4.25;0.95;;;;;;;;;;4994223;28;20449;-60
2022/06/13 14:42:52;;;;;;;4.85;1.08;;;;;;;;;;5012180;28;20042;-61
2022/06/13 14:45:24;;;;;;;6.75;1.10;;;;;;;;;;4992496;28;20056;-60
2022/06/13 14:48:12;;;;;;;4.78;1.35;;;22.20;99.90;;;;;;4992031;28;20485;-61
2022/06/13 14:50:46;;;;;;;4.60;0.88;;;;;;;;;;5016265;28;20046;-60
2022/06/13 14:53:30;;;;;;;7.47;1.65;;;22.30;99.90;;;;;;5019421;22;20065;-60
2022/06/13 14:56:10;;;;;;;6.68;2.25;;;;;;;;;;5029892;28;20091;-59
2022/06/13 15:01:37;;;;;;;6.80;1.13;;;21.80;99.90;;;;;;5014048;28;20053;-59
2022/06/13 15:04:03;;;;;;;6.38;1.50;;;;;;;;;;5016580;28;20099;-59
2022/06/13 15:06:59;;;;;;;5.72;1.00;;;21.40;99.90;;;;;;5031362;28;20094;-59
2022/06/13 15:09:34;;;;;;;6.20;1.25;;;;;;;;;;5028398;28;20103;-61
2022/06/13 15:12:02;;;;;;;5.60;1.45;;;;;;;;;;5031065;28;20053;-62
2022/06/13 15:14:43;;;;;;;5.57;1.25;;;22.50;99.90;;;;;;5033073;28;20411;-62
2022/06/13 15:17:10;;;;;;;6.30;1.40;;;;;;;;;;5033045;28;20140;-61
2022/06/13 15:19:39;;;;;;;7.72;1.83;;;23.10;99.90;;;;;;5032513;28;20041;-62
2022/06/13 15:22:19;;;;;;;6.30;1.27;;;23.00;99.90;;;;;;5030517;28;20045;-62
2022/06/13 15:24:52;;;;;;;8.85;1.90;;;24.10;99.90;;;;;;5032077;28;20053;-61
2022/06/13 15:27:18;;;;;;;7.60;1.58;;;23.50;99.90;;;;;;5031528;28;20049;-62